createdAt,value
2022-08-27T00:00:24.596Z,100752.19
2022-08-27T00:02:52.320Z,100742.59
2022-08-27T00:05:21.134Z,100742.38
2022-08-27T00:07:50.303Z,100743.06
2022-08-27T00:10:21.901Z,100731.56
2022-08-27T00:12:50.031Z,100733.41
2022-08-27T00:15:19.249Z,100720.94
2022-08-27T00:17:47.847Z,100721.78
2022-08-27T00:20:18.448Z,100731.56
2022-08-27T00:22:46.684Z,100723.78
2022-08-27T00:25:14.734Z,100719.47
2022-08-27T00:27:42.367Z,100717.81
2022-08-27T00:30:12.913Z,100721.50
2022-08-27T00:32:42.356Z,100715.50
2022-08-27T00:35:10.639Z,100713.03
2022-08-27T00:37:39.594Z,100716.72
2022-08-27T00:40:09.733Z,100722.03
2022-08-27T00:42:37.532Z,100716.72
2022-08-27T00:45:06.175Z,100720.38
2022-08-27T00:47:40.549Z,100712.41
2022-08-27T00:50:14.219Z,100714.06
2022-08-27T00:52:46.903Z,100721.22
2022-08-27T00:55:17.984Z,100727.53
2022-08-27T00:57:47.019Z,100723.19
2022-08-27T01:00:18.958Z,100722.75
2022-08-27T01:02:47.665Z,100713.09
2022-08-27T01:05:20.522Z,100721.06
2022-08-27T01:07:52.622Z,100714.94
2022-08-27T01:10:24.120Z,100711.81
2022-08-27T01:12:54.184Z,100699.34
2022-08-27T01:15:24.378Z,100710.66
2022-08-27T01:17:52.039Z,100714.75
2022-08-27T01:20:23.437Z,100712.75
2022-08-27T01:23:00.408Z,100710.44
2022-08-27T01:25:30.318Z,100708.63
2022-08-27T01:28:00.551Z,100703.97
2022-08-27T01:30:28.631Z,100704.59
2022-08-27T01:32:56.987Z,100704.59
2022-08-27T01:35:25.190Z,100701.75
2022-08-27T01:37:56.953Z,100702.59
2022-08-27T01:40:25.529Z,100703.25
2022-08-27T01:42:56.609Z,100702.41
2022-08-27T01:45:27.999Z,100702.41
2022-08-27T01:47:56.848Z,100703.44
2022-08-27T01:50:27.038Z,100701.59
2022-08-27T01:52:55.271Z,100710.59
2022-08-27T01:55:27.339Z,100710.59
2022-08-27T01:57:56.715Z,100707.94
2022-08-27T02:00:26.776Z,100705.28
2022-08-27T02:02:54.658Z,100702.41
2022-08-27T02:05:22.692Z,100709.38
2022-08-27T02:07:50.324Z,100721.69
2022-08-27T02:10:20.874Z,100721.69
2022-08-27T02:12:49.422Z,100714.34
2022-08-27T02:15:19.514Z,100713.53
2022-08-27T02:17:48.038Z,100709.03
2022-08-27T02:20:17.123Z,100718.47
2022-08-27T02:22:45.952Z,100716.66
2022-08-27T02:25:15.348Z,100719.94
2022-08-27T02:27:43.924Z,100723.44
2022-08-27T02:30:13.743Z,100730.41
2022-08-27T02:32:42.855Z,100731.22
2022-08-27T02:35:10.694Z,100725.91
2022-08-27T02:37:38.425Z,100720.41
2022-08-27T02:40:07.060Z,100731.91
2022-08-27T02:42:34.655Z,100734.56
2022-08-27T02:45:02.222Z,100739.88
2022-08-27T02:47:29.772Z,100734.56
2022-08-27T02:49:58.796Z,100737.84
2022-08-27T02:52:27.332Z,100735.03
2022-08-27T02:54:55.251Z,100735.84
2022-08-27T02:57:24.204Z,100737.50
2022-08-27T02:59:52.690Z,100726.69
2022-08-27T03:02:22.159Z,100736.13
2022-08-27T03:04:53.798Z,100730.81
2022-08-27T03:07:24.582Z,100735.94
2022-08-27T03:09:52.766Z,100732.28
2022-08-27T03:12:22.794Z,100728.44
2022-08-27T03:14:52.587Z,100727.44
2022-08-27T03:17:38.410Z,100727.44
2022-08-27T03:20:07.784Z,100724.59
2022-08-27T03:22:36.922Z,100729.91
2022-08-27T03:25:05.259Z,100728.06
2022-08-27T03:27:32.950Z,100732.41
2022-08-27T03:30:04.120Z,100731.38
2022-08-27T03:32:31.874Z,100725.22
2022-08-27T03:34:59.998Z,100723.22
2022-08-27T03:37:28.890Z,100720.56
2022-08-27T03:39:57.938Z,100720.38
2022-08-27T03:42:25.604Z,100716.06
2022-08-27T03:44:53.174Z,100712.38
2022-08-27T03:47:22.483Z,100718.56
2022-08-27T03:49:50.182Z,100722.84
2022-08-27T03:52:18.115Z,100716.72
2022-08-27T03:54:46.536Z,100722.03
2022-08-27T03:57:15.450Z,100718.56
2022-08-27T03:59:43.031Z,100719.38
2022-08-27T04:02:10.644Z,100721.84
2022-08-27T04:04:38.415Z,100711.22
2022-08-27T04:07:05.985Z,100720.81
2022-08-27T04:09:33.518Z,100714.50
2022-08-27T04:12:02.191Z,100712.84
2022-08-27T04:14:31.031Z,100714.50
2022-08-27T04:16:58.652Z,100714.34
2022-08-27T04:19:28.533Z,100717.00
2022-08-27T04:22:01.311Z,100710.69
2022-08-27T04:24:29.588Z,100707.84
2022-08-27T04:26:57.168Z,100717.44
2022-08-27T04:29:24.762Z,100712.94
2022-08-27T04:31:53.951Z,100716.47
2022-08-27T04:34:21.795Z,100717.44
2022-08-27T04:36:50.202Z,100723.59
2022-08-27T04:39:18.171Z,100723.59
2022-08-27T04:41:45.837Z,100719.13
2022-08-27T04:44:13.592Z,100725.25
2022-08-27T04:46:41.763Z,100727.09
2022-08-27T04:49:16.793Z,100729.13
2022-08-27T04:51:44.437Z,100723.59
2022-08-27T04:54:13.221Z,100720.94
2022-08-27T04:56:41.455Z,100736.88
2022-08-27T04:59:11.162Z,100732.41
2022-08-27T05:01:40.491Z,100731.97
2022-08-27T05:04:08.478Z,100731.13
2022-08-27T05:06:37.753Z,100743.41
2022-08-27T05:09:06.332Z,100746.06
2022-08-27T05:11:35.527Z,100746.25
2022-08-27T05:14:05.042Z,100738.28
2022-08-27T05:16:33.548Z,100738.28
2022-08-27T05:19:01.083Z,100728.44
2022-08-27T05:21:31.858Z,100728.44
2022-08-27T05:24:03.198Z,100733.94
2022-08-27T05:26:33.159Z,100733.94
2022-08-27T05:29:01.467Z,100734.63
2022-08-27T05:31:30.041Z,100738.91
2022-08-27T05:33:58.559Z,100733.59
2022-08-27T05:36:29.519Z,100739.56
2022-08-27T05:38:58.432Z,100735.91
2022-08-27T05:41:34.267Z,100739.38
2022-08-27T05:44:18.587Z,100733.88
2022-08-27T05:46:52.153Z,100744.50
2022-08-27T05:50:34.317Z,100747.16
2022-08-27T05:53:59.111Z,100740.03
2022-08-27T05:56:37.975Z,100747.00
2022-08-27T05:59:24.458Z,100740.03
2022-08-27T06:02:20.682Z,100746.19
2022-08-27T06:13:04.969Z,100754.44
2022-08-27T06:37:00.044Z,100772.22
2022-08-27T07:06:16.564Z,100789.19
2022-08-27T07:19:43.644Z,100783.03
2022-08-27T07:22:16.157Z,100790.66
2022-08-27T07:25:07.395Z,100787.16
2022-08-27T07:27:50.343Z,100795.63
2022-08-27T07:30:26.759Z,100789.91
2022-08-27T07:33:00.360Z,100795.91
2022-08-27T07:35:32.533Z,100790.41
2022-08-27T07:38:00.659Z,100799.66
2022-08-27T07:40:59.140Z,100794.78
2022-08-27T07:44:17.273Z,100785.63
2022-08-27T07:46:51.304Z,100796.19
2022-08-27T07:49:25.112Z,100791.94
2022-08-27T07:52:05.627Z,100783.41
2022-08-27T07:54:37.301Z,100793.31
2022-08-27T07:57:16.784Z,100786.78
2022-08-27T07:59:45.137Z,100789.94
2022-08-27T08:02:22.593Z,100788.34
2022-08-27T08:05:00.087Z,100798.31
2022-08-27T08:07:33.967Z,100803.34
2022-08-27T08:10:11.428Z,100795.25
2022-08-27T08:12:41.504Z,100794.28
2022-08-27T08:15:11.602Z,100795.00
2022-08-27T08:17:40.038Z,100797.09
2022-08-27T08:20:21.721Z,100805.09
2022-08-27T08:22:55.027Z,100797.09
2022-08-27T08:25:27.524Z,100798.94
2022-08-27T08:28:01.279Z,100790.31
2022-08-27T08:30:30.056Z,100785.53
2022-08-27T08:33:03.991Z,100773.41
2022-08-27T08:35:34.937Z,100765.81
2022-08-27T08:38:40.794Z,100757.56
2022-08-27T08:42:20.587Z,100757.44
2022-08-27T08:45:50.110Z,100758.31
2022-08-27T08:49:00.197Z,100766.47
2022-08-27T08:52:48.500Z,100762.41
2022-08-27T08:59:37.180Z,100763.13
2022-08-27T09:02:57.232Z,100756.16
2022-08-27T09:06:07.984Z,100737.31
2022-08-27T09:09:09.872Z,100739.59
2022-08-27T09:12:35.298Z,100735.03
2022-08-27T09:35:35.405Z,100773.75
2022-08-27T09:38:58.334Z,100784.22
2022-08-27T09:43:00.970Z,100787.72
2022-08-27T09:51:01.221Z,100810.88
2022-08-27T09:53:36.402Z,100814.16
2022-08-27T09:56:09.233Z,100823.44
2022-08-27T09:58:51.594Z,100829.97
2022-08-27T10:01:23.683Z,100824.03
2022-08-27T10:03:52.825Z,100819.69
2022-08-27T10:06:30.817Z,100820.88
2022-08-27T10:17:22.546Z,100835.94
2022-08-27T10:24:21.782Z,100826.88
2022-08-27T10:28:11.436Z,100831.78
2022-08-27T10:32:06.884Z,100830.81
2022-08-27T10:38:59.896Z,100841.41
2022-08-27T10:41:37.654Z,100836.34
2022-08-27T10:44:28.186Z,100839.03
2022-08-27T10:47:08.859Z,100839.22
2022-08-27T10:49:48.628Z,100836.34
2022-08-27T10:52:24.031Z,100836.63
2022-08-27T10:54:58.578Z,100834.88
2022-08-27T10:57:56.460Z,100842.09
2022-08-27T11:00:35.423Z,100832.34
2022-08-27T11:03:23.395Z,100837.72
2022-08-27T11:11:18.272Z,100829.16
2022-08-27T11:14:47.347Z,100833.13
2022-08-27T11:17:32.105Z,100832.78
2022-08-27T11:20:07.499Z,100832.00
2022-08-27T11:22:41.779Z,100829.13
2022-08-27T11:25:26.548Z,100838.59
2022-08-27T11:28:01.035Z,100828.16
2022-08-27T11:30:38.069Z,100825.28
2022-08-27T11:33:17.269Z,100833.28
2022-08-27T11:36:03.710Z,100827.50
2022-08-27T11:38:53.672Z,100829.56
2022-08-27T11:41:56.498Z,100831.81
2022-08-27T11:44:28.862Z,100827.28
2022-08-27T11:47:12.639Z,100828.31
2022-08-27T11:49:48.334Z,100833.25
2022-08-27T11:52:26.568Z,100842.09
2022-08-27T11:55:11.363Z,100831.19
2022-08-27T11:57:40.717Z,100836.72
2022-08-27T12:04:04.637Z,100835.16
2022-08-27T12:11:36.295Z,100835.16
2022-08-27T12:17:59.006Z,100823.75
2022-08-27T12:21:04.578Z,100826.66
2022-08-27T12:23:43.885Z,100830.38
2022-08-27T12:26:29.753Z,100831.88
2022-08-27T12:29:24.136Z,100830.72
2022-08-27T12:31:55.573Z,100831.56
2022-08-27T12:34:27.395Z,100818.81
2022-08-27T12:37:00.491Z,100822.53
2022-08-27T12:39:38.099Z,100815.34
2022-08-27T12:42:14.930Z,100822.13
2022-08-27T12:44:44.375Z,100820.09
2022-08-27T12:47:16.106Z,100816.38
2022-08-27T12:49:50.520Z,100816.19
2022-08-27T12:52:45.101Z,100813.31
2022-08-27T12:55:29.606Z,100812.31
2022-08-27T12:58:46.626Z,100812.72
2022-08-27T13:17:07.702Z,100788.91
2022-08-27T13:19:51.051Z,100797.09
2022-08-27T13:22:25.631Z,100795.84
2022-08-27T13:24:57.435Z,100798.03
2022-08-27T13:27:28.896Z,100800.03
2022-08-27T13:30:03.257Z,100799.16
2022-08-27T13:32:40.480Z,100794.53
2022-08-27T13:35:28.960Z,100796.94
2022-08-27T13:42:16.284Z,100800.28
2022-08-27T13:45:44.617Z,100793.13
2022-08-27T13:48:28.804Z,100793.38
2022-08-27T13:51:07.043Z,100798.59
2022-08-27T13:53:52.968Z,100791.19
2022-08-27T13:56:27.751Z,100793.50
2022-08-27T13:58:56.198Z,100794.56
2022-08-27T14:01:32.447Z,100797.84
2022-08-27T14:04:03.353Z,100792.09
2022-08-27T14:06:36.420Z,100794.09
2022-08-27T14:09:17.073Z,100788.91
2022-08-27T14:11:48.230Z,100789.94
2022-08-27T14:14:19.521Z,100786.84
2022-08-27T14:16:58.924Z,100788.28
2022-08-27T14:19:36.101Z,100793.88
2022-08-27T14:22:06.739Z,100799.66
2022-08-27T14:24:35.807Z,100795.38
2022-08-27T14:27:09.590Z,100793.09
2022-08-27T14:29:38.948Z,100791.88
2022-08-27T14:32:10.355Z,100794.34
2022-08-27T14:34:39.233Z,100786.13
2022-08-27T14:37:08.073Z,100784.94
2022-08-27T14:39:36.634Z,100782.88
2022-08-27T14:42:06.546Z,100783.69
2022-08-27T14:44:34.926Z,100776.25
2022-08-27T14:47:03.224Z,100779.81
2022-08-27T14:49:39.216Z,100775.88
2022-08-27T14:52:10.524Z,100788.88
2022-08-27T14:54:40.154Z,100786.81
2022-08-27T14:57:10.155Z,100782.06
2022-08-27T14:59:41.338Z,100788.03
2022-08-27T15:02:14.157Z,100781.03
2022-08-27T15:08:32.219Z,100773.63
2022-08-27T15:12:32.605Z,100775.50
2022-08-27T15:19:01.148Z,100780.25
2022-08-27T15:26:20.215Z,100784.19
2022-08-27T15:29:04.246Z,100782.72
2022-08-27T15:35:46.767Z,100792.38
2022-08-27T15:39:25.440Z,100790.31
2022-08-27T15:42:50.391Z,100793.59
2022-08-27T15:46:17.368Z,100788.44
2022-08-27T15:53:08.055Z,100780.19
2022-08-27T15:59:16.133Z,100783.88
2022-08-27T16:02:49.742Z,100783.66
2022-08-27T16:06:18.826Z,100783.22
2022-08-27T16:13:00.697Z,100787.06
2022-08-27T16:16:28.134Z,100801.25
2022-08-27T16:19:14.712Z,100801.03
2022-08-27T16:22:59.484Z,100797.69
2022-08-27T16:32:58.948Z,100794.94
2022-08-27T16:35:31.887Z,100801.69
2022-08-27T16:41:50.350Z,100807.19
2022-08-27T16:45:01.571Z,100796.28
2022-08-27T16:48:19.411Z,100805.47
2022-08-27T16:55:09.065Z,100804.97
2022-08-27T16:58:31.890Z,100810.53
2022-08-27T17:13:35.822Z,100829.34
2022-08-27T17:17:11.765Z,100830.47
2022-08-27T17:20:41.527Z,100839.91
2022-08-27T17:24:00.696Z,100831.56
2022-08-27T17:27:28.275Z,100843.16
2022-08-27T17:30:56.251Z,100849.25
2022-08-27T17:34:08.789Z,100863.31
2022-08-27T17:38:11.385Z,100863.09
2022-08-27T17:41:40.796Z,100865.69
2022-08-27T17:45:00.320Z,100864.34
2022-08-27T17:48:29.529Z,100874.44
2022-08-27T17:51:09.412Z,100868.13
2022-08-27T17:54:40.865Z,100871.97
2022-08-27T17:58:31.680Z,100883.19
2022-08-27T18:00:59.867Z,100887.84
2022-08-27T18:07:13.353Z,100880.78
2022-08-27T18:17:53.199Z,100889.50
2022-08-27T18:21:10.709Z,100907.97
2022-08-27T18:23:46.904Z,100908.13
2022-08-27T18:26:19.174Z,100911.16
2022-08-27T18:29:01.020Z,100915.22
2022-08-27T18:31:49.776Z,100910.97
2022-08-27T18:35:01.424Z,100909.38
2022-08-27T18:38:03.664Z,100917.25
2022-08-27T18:40:58.009Z,100920.09
2022-08-27T18:44:24.684Z,100914.03
2022-08-27T18:47:04.920Z,100915.69
2022-08-27T18:50:39.339Z,100916.22
2022-08-27T18:54:21.973Z,100916.06
2022-08-27T18:57:36.431Z,100912.75
2022-08-27T19:00:59.023Z,100922.91
2022-08-27T19:07:05.474Z,100918.13
2022-08-27T19:10:02.424Z,100926.47
2022-08-27T19:13:00.352Z,100926.66
2022-08-27T19:15:52.967Z,100932.50
2022-08-27T19:19:03.793Z,100933.03
2022-08-27T19:25:14.732Z,100942.84
2022-08-27T19:28:41.368Z,100945.19
2022-08-27T19:31:34.765Z,100946.00
2022-08-27T19:34:45.458Z,100947.00
2022-08-27T19:38:22.652Z,100956.00
2022-08-27T19:41:18.831Z,100954.69
2022-08-27T19:47:51.552Z,100952.63
2022-08-27T19:51:18.346Z,100958.13
2022-08-27T19:54:51.998Z,100949.63
2022-08-27T20:02:25.225Z,100958.38
2022-08-27T20:06:09.248Z,100957.22
2022-08-27T20:09:33.862Z,100965.06
2022-08-27T20:22:03.748Z,100956.03
2022-08-27T20:29:32.689Z,100967.81
2022-08-27T20:33:08.968Z,100966.19
2022-08-27T20:36:57.630Z,100967.81
2022-08-27T20:43:05.347Z,100976.63
2022-08-27T20:46:20.600Z,100971.63
2022-08-27T20:52:57.989Z,100976.94
2022-08-27T20:55:34.957Z,100978.91
2022-08-27T21:10:42.887Z,100984.06
2022-08-27T21:17:35.860Z,100979.28
2022-08-27T21:20:28.604Z,100977.78
2022-08-27T21:23:10.621Z,100979.28
2022-08-27T21:26:31.558Z,100976.63
2022-08-27T21:38:01.575Z,100979.94
2022-08-27T21:44:59.704Z,100981.94
2022-08-27T21:51:07.320Z,100976.81
2022-08-27T21:53:38.658Z,100981.25
2022-08-27T21:56:40.547Z,100977.78
2022-08-27T22:00:49.322Z,100975.78
2022-08-27T22:03:50.912Z,100971.16
2022-08-27T22:11:11.888Z,100970.47
2022-08-27T22:15:05.020Z,100975.13
2022-08-27T22:22:38.762Z,100976.31
2022-08-27T22:28:29.359Z,100974.78
2022-08-27T22:30:56.942Z,100968.50
2022-08-27T22:33:24.529Z,100965.63
2022-08-27T22:35:52.197Z,100962.31
2022-08-27T22:38:19.675Z,100967.63
2022-08-27T22:40:50.139Z,100963.34
2022-08-27T22:43:17.708Z,100969.47
2022-08-27T22:45:45.472Z,100970.63
2022-08-27T22:48:14.387Z,100968.84
2022-08-27T22:50:42.195Z,100974.47
2022-08-27T22:53:09.996Z,100972.97
2022-08-27T22:55:37.616Z,100972.16
2022-08-27T22:58:06.671Z,100970.66
2022-08-27T23:00:35.625Z,100980.28
2022-08-27T23:03:05.417Z,100974.16
2022-08-27T23:05:41.599Z,100982.78
2022-08-27T23:08:12.077Z,100982.47
2022-08-27T23:10:40.651Z,100972.00
2022-08-27T23:13:10.633Z,100969.34
2022-08-27T23:15:38.633Z,100975.66
2022-08-27T23:18:08.198Z,100973.00
2022-08-27T23:20:36.087Z,100966.88
2022-08-27T23:23:03.902Z,100966.03
2022-08-27T23:25:49.397Z,100963.56
2022-08-27T23:28:18.646Z,100961.56
2022-08-27T23:30:46.444Z,100961.72
2022-08-27T23:33:14.944Z,100966.22
2022-08-27T23:35:47.611Z,100963.72
2022-08-27T23:38:15.927Z,100963.72
2022-08-27T23:40:43.699Z,100969.84
2022-08-27T23:43:11.292Z,100972.69
2022-08-27T23:45:40.784Z,100974.50
2022-08-27T23:48:09.150Z,100972.84
2022-08-27T23:50:36.803Z,100979.00
2022-08-27T23:53:05.543Z,100977.34
2022-08-27T23:55:33.512Z,100976.69
2022-08-27T23:58:01.439Z,100981.16
